Time;durP1;ratioP1;P1;durP2;ratioP2;P2;SDS_P1;SDS_P2;PMS_P1;PMS_P2;Temp;Humidity;BMP_temperature;BMP_pressure;BME280_temperature;BME280_humidity;BME280_pressure;Samples;Min_cycle;Max_cycle;Signal;HPM_P1;HPM_P2
2024/01/13 00:01:29;;;;;;;;;;;;;;;;;;5079832;28;19913;-82
2024/01/13 00:03:55;;;;;;;;;;;;;;;;;;5086719;28;19969;-83
2024/01/13 00:06:21;;;;;;;;;;;;;;;;;;5079928;28;20038;-82
2024/01/13 00:08:47;;;;;;;;;;;;;;;;;;5082181;28;19935;-82
2024/01/13 00:11:13;;;;;;;;;;;;;;;;;;5083983;28;19920;-82
2024/01/13 00:13:38;;;;;;;;;;;;;;;;;;5076700;28;19908;-83
2024/01/13 00:16:04;;;;;;;;;;;;;;;;;;5072543;28;19916;-83
2024/01/13 00:18:30;;;;;;;;;;;;;;;;;;5079066;28;19916;-83
2024/01/13 00:20:56;;;;;;;;;;;;;;;;;;5087763;28;19956;-82
2024/01/13 00:23:22;;;;;;;;;;;;;;;;;;5085368;28;19935;-83
2024/01/13 00:25:48;;;;;;;;;;;;;;;;;;5089809;28;19918;-82
2024/01/13 00:28:13;;;;;;;;;;;;;;;;;;5076814;28;19916;-82
2024/01/13 00:30:39;;;;;;;;;;;;;;;;;;5081892;28;19927;-82
2024/01/13 00:33:05;;;;;;;;;;;;;;;;;;5085705;28;20281;-82
2024/01/13 00:35:31;;;;;;;;;;;;;;;;;;5089701;28;20377;-81
2024/01/13 00:37:57;;;;;;;;;;;;;;;;;;5090764;28;19912;-81
2024/01/13 00:40:23;;;;;;;;;;;;;;;;;;5089802;28;19950;-83
2024/01/13 00:42:48;;;;;;;;;;;;;;;;;;5087998;28;19914;-82
2024/01/13 00:45:14;;;;;;;;;;;;;;;;;;5088439;28;20671;-84
2024/01/13 00:47:42;;;;;;;;;;;;;;;;;;5080364;28;19951;-84
2024/01/13 00:50:08;;;;;;;;;;;;;;;;;;5085836;28;19916;-82
2024/01/13 00:52:34;;;;;;;;;;;;;;;;;;5084894;28;20310;-83
2024/01/13 00:55:00;;;;;;;;;;;;;;;;;;5087165;28;20461;-83
2024/01/13 00:57:26;;;;;;;;;;;;;;;;;;5086827;28;19958;-83
2024/01/13 00:59:51;;;;;;;;;;;;;;;;;;5077271;28;20412;-84
2024/01/13 01:02:17;;;;;;;;;;;;;;;;;;5079232;28;20287;-82
2024/01/13 01:04:43;;;;;;;;;;;;;;;;;;5084816;28;19912;-82
2024/01/13 01:07:09;;;;;;;;;;;;;;;;;;5089352;28;19996;-82
2024/01/13 01:09:35;;;;;;;;;;;;;;;;;;5082050;28;19943;-82
2024/01/13 01:12:01;;;;;;;;;;;;;;;;;;5080262;28;19981;-82
2024/01/13 01:14:27;;;;;;;;;;;;;;;;;;5089137;28;19912;-81
2024/01/13 01:16:52;;;;;;;;;;;;;;;;;;5081824;28;20370;-83
2024/01/13 01:19:18;;;;;;;;;;;;;;;;;;5087436;28;20424;-82
2024/01/13 01:21:44;;;;;;;;;;;;;;;;;;5087367;28;19912;-82
2024/01/13 01:24:10;;;;;;;;;;;;;;;;;;5084293;28;19924;-82
2024/01/13 01:26:36;;;;;;;;;;;;;;;;;;5088897;28;19947;-82
2024/01/13 01:29:02;;;;;;;;;;;;;;;;;;5082648;28;19920;-82
2024/01/13 01:31:27;;;;;;;;;;;;;;;;;;5089631;28;19919;-82
2024/01/13 01:33:53;;;;;;;;;;;;;;;;;;5087907;28;19950;-82
2024/01/13 01:36:19;;;;;;;;;;;;;;;;;;5080488;28;19916;-83
2024/01/13 01:38:45;;;;;;;;;;;;;;;;;;5080789;28;19957;-82
2024/01/13 01:41:11;;;;;;;;;;;;;;;;;;5089730;28;19923;-82
2024/01/13 01:43:37;;;;;;;;;;;;;;;;;;5082497;28;19912;-82
2024/01/13 01:46:03;;;;;;;;;;;;;;;;;;5088738;28;19947;-83
2024/01/13 01:48:28;;;;;;;;;;;;;;;;;;5083372;28;20370;-82
2024/01/13 01:50:54;;;;;;;;;;;;;;;;;;5081364;28;20389;-83
2024/01/13 01:53:20;;;;;;;;;;;;;;;;;;5087168;28;20305;-82
2024/01/13 01:55:46;;;;;;;;;;;;;;;;;;5083392;28;19980;-82
2024/01/13 01:58:12;;;;;;;;;;;;;;;;;;5075062;28;20046;-82
2024/01/13 02:00:37;;;;;;;;;;;;;;;;;;5082090;28;19912;-82
2024/01/13 02:03:03;;;;;;;;;;;;;;;;;;5082313;28;19935;-82
2024/01/13 02:05:29;;;;;;;;;;;;;;;;;;5078290;28;19996;-82
2024/01/13 02:07:55;;;;;;;;;;;;;;;;;;5080906;28;19916;-82
2024/01/13 02:10:22;;;;;;;;;;;;;;;;;;5074541;28;19924;-82
2024/01/13 02:12:48;;;;;;;;;;;;;;;;;;5078400;28;20286;-81
2024/01/13 02:15:13;;;;;;;;;;;;;;;;;;5079168;28;19917;-82
2024/01/13 02:17:39;;;;;;;;;;;;;;;;;;5078116;28;20003;-82
2024/01/13 02:20:05;;;;;;;;;;;;;;;;;;5087563;28;20366;-81
2024/01/13 02:22:31;;;;;;;;;;;;;;;;;;5084357;28;20290;-81
2024/01/13 02:24:57;;;;;;;;;;;;;;;;;;5080350;28;20056;-82
2024/01/13 02:27:23;;;;;;;;;;;;;;;;;;5087453;28;19916;-81
2024/01/13 02:29:49;;;;;;;;;;;;;;;;;;5083950;28;19923;-82
2024/01/13 02:32:14;;;;;;;;;;;;;;;;;;5087873;28;20317;-82
2024/01/13 02:34:40;;;;;;;;;;;;;;;;;;5077586;28;19916;-81
2024/01/13 02:37:06;;;;;;;;;;;;;;;;;;5083727;28;19997;-81
2024/01/13 02:39:32;;;;;;;;;;;;;;;;;;5074315;28;19913;-82
2024/01/13 02:41:58;;;;;;;;;;;;;;;;;;5079131;28;20406;-82
2024/01/13 02:44:24;;;;;;;;;;;;;;;;;;5082987;28;20082;-82
2024/01/13 02:46:49;;;;;;;;;;;;;;;;;;5087796;28;19940;-82
2024/01/13 02:49:15;;;;;;;;;;;;;;;;;;5079151;28;19920;-82
2024/01/13 02:51:41;;;;;;;;;;;;;;;;;;5079001;28;19923;-82
2024/01/13 02:54:07;;;;;;;;;;;;;;;;;;5087998;28;19998;-81
2024/01/13 02:56:33;;;;;;;;;;;;;;;;;;5088418;28;19923;-82
2024/01/13 02:58:59;;;;;;;;;;;;;;;;;;5072543;28;19999;-82
2024/01/13 03:01:25;;;;;;;;;;;;;;;;;;5081185;28;20053;-81
2024/01/13 03:03:52;;;;;;;;;;;;;;;;;;5074747;28;19916;-82
2024/01/13 03:06:18;;;;;;;;;;;;;;;;;;5083427;28;19916;-82
2024/01/13 03:08:44;;;;;;;;;;;;;;;;;;5084517;28;20046;-82
2024/01/13 03:11:10;;;;;;;;;;;;;;;;;;5084991;28;19920;-82
2024/01/13 03:13:35;;;;;;;;;;;;;;;;;;5085920;28;19916;-82
2024/01/13 03:16:01;;;;;;;;;;;;;;;;;;5082792;28;19908;-81
2024/01/13 03:18:28;;;;;;;;;;;;;;;;;;5082821;28;19951;-82
2024/01/13 03:20:53;;;;;;;;;;;;;;;;;;5086942;28;20366;-82
2024/01/13 03:23:19;;;;;;;;;;;;;;;;;;5081756;28;19931;-82
2024/01/13 03:25:48;;;;;;;;;;;;;;;;;;5075331;28;19924;-82
2024/01/13 03:28:14;;;;;;;;;;;;;;;;;;5078363;28;19997;-82
2024/01/13 03:30:40;;;;;;;;;;;;;;;;;;5079533;28;20598;-82
2024/01/13 03:33:05;;;;;;;;;;;;;;;;;;5079005;28;20260;-85
2024/01/13 03:35:31;;;;;;;;;;;;;;;;;;5087464;28;19935;-82
2024/01/13 03:37:57;;;;;;;;;;;;;;;;;;5081605;28;19999;-81
2024/01/13 03:40:23;;;;;;;;;;;;;;;;;;5089903;28;19966;-82
2024/01/13 03:42:49;;;;;;;;;;;;;;;;;;5084930;28;19916;-83
2024/01/13 03:45:15;;;;;;;;;;;;;;;;;;5088730;28;19938;-81
2024/01/13 03:47:41;;;;;;;;;;;;;;;;;;5079569;28;19997;-81
2024/01/13 03:50:06;;;;;;;;;;;;;;;;;;5078891;28;19917;-82
2024/01/13 03:52:32;;;;;;;;;;;;;;;;;;5084510;28;20011;-82
2024/01/13 03:54:58;;;;;;;;;;;;;;;;;;5083479;28;19919;-83
2024/01/13 03:57:24;;;;;;;;;;;;;;;;;;5089253;28;19916;-82
2024/01/13 03:59:50;;;;;;;;;;;;;;;;;;5086863;28;19916;-81
2024/01/13 04:02:16;;;;;;;;;;;;;;;;;;5087046;28;19972;-82
2024/01/13 04:04:42;;;;;;;;;;;;;;;;;;5088183;28;19916;-81
2024/01/13 04:07:08;;;;;;;;;;;;;;;;;;5084274;28;20328;-83
2024/01/13 04:09:34;;;;;;;;;;;;;;;;;;5090884;28;19961;-82
2024/01/13 04:12:00;;;;;;;;;;;;;;;;;;5076640;28;20569;-82
2024/01/13 04:14:25;;;;;;;;;;;;;;;;;;5090203;28;20010;-82
2024/01/13 04:16:51;;;;;;;;;;;;;;;;;;5091287;28;20061;-81
2024/01/13 04:19:17;;;;;;;;;;;;;;;;;;5089741;28;19939;-82
2024/01/13 04:21:43;;;;;;;;;;;;;;;;;;5080377;28;19912;-82
2024/01/13 04:24:09;;;;;;;;;;;;;;;;;;5090598;28;19926;-82
2024/01/13 04:26:35;;;;;;;;;;;;;;;;;;5089786;28;20012;-82
2024/01/13 04:29:00;;;;;;;;;;;;;;;;;;5081692;28;19916;-82
2024/01/13 04:31:26;;;;;;;;;;;;;;;;;;5082439;28;19916;-82
2024/01/13 04:33:52;;;;;;;;;;;;;;;;;;5082382;28;19912;-82
2024/01/13 04:36:18;;;;;;;;;;;;;;;;;;5090454;28;19916;-83
2024/01/13 04:38:44;;;;;;;;;;;;;;;;;;5090376;28;19908;-82
2024/01/13 04:41:10;;;;;;;;;;;;;;;;;;5084825;28;20270;-83
2024/01/13 04:43:37;;;;;;;;;;;;;;;;;;5088476;28;20006;-83
2024/01/13 04:46:03;;;;;;;;;;;;;;;;;;5090444;28;19961;-83
2024/01/13 04:48:29;;;;;;;;;;;;;;;;;;5076442;28;19987;-82
2024/01/13 04:50:55;;;;;;;;;;;;;;;;;;5088142;28;19916;-83
2024/01/13 04:53:21;;;;;;;;;;;;;;;;;;5077615;28;19964;-83
2024/01/13 04:55:47;;;;;;;;;;;;;;;;;;5088622;28;19908;-82
2024/01/13 04:58:13;;;;;;;;;;;;;;;;;;5089281;28;19912;-83
2024/01/13 05:00:38;;;;;;;;;;;;;;;;;;5084128;28;19924;-83
2024/01/13 05:03:04;;;;;;;;;;;;;;;;;;5085382;28;19908;-83
2024/01/13 05:05:30;;;;;;;;;;;;;;;;;;5083956;28;19913;-83
2024/01/13 05:07:56;;;;;;;;;;;;;;;;;;5089346;28;20418;-82
2024/01/13 05:10:22;;;;;;;;;;;;;;;;;;5079848;28;20296;-83
2024/01/13 05:12:48;;;;;;;;;;;;;;;;;;5072662;28;20328;-83
2024/01/13 05:15:14;;;;;;;;;;;;;;;;;;5081683;28;19912;-83
2024/01/13 05:17:39;;;;;;;;;;;;;;;;;;5088421;28;19912;-82
2024/01/13 05:20:05;;;;;;;;;;;;;;;;;;5086902;28;20006;-83
2024/01/13 05:22:31;;;;;;;;;;;;;;;;;;5077509;28;19999;-83
2024/01/13 05:24:57;;;;;;;;;;;;;;;;;;5089236;28;20558;-84
2024/01/13 05:27:23;;;;;;;;;;;;;;;;;;5084275;28;20333;-84
2024/01/13 05:29:49;;;;;;;;;;;;;;;;;;5078267;28;20285;-84
2024/01/13 05:32:14;;;;;;;;;;;;;;;;;;5083480;28;19912;-83
2024/01/13 05:34:41;;;;;;;;;;;;;;;;;;5075942;28;19964;-84
2024/01/13 05:37:07;;;;;;;;;;;;;;;;;;5078590;28;20541;-83
2024/01/13 05:39:33;;;;;;;;;;;;;;;;;;5078251;28;19916;-85
2024/01/13 05:41:59;;;;;;;;;;;;;;;;;;5084939;28;20355;-85
2024/01/13 05:44:24;;;;;;;;;;;;;;;;;;5080785;28;19962;-83
2024/01/13 05:46:51;;;;;;;;;;;;;;;;;;5085092;28;19970;-83
2024/01/13 05:49:17;;;;;;;;;;;;;;;;;;5081234;28;19923;-84
2024/01/13 05:51:42;;;;;;;;;;;;;;;;;;5078795;28;19915;-83
2024/01/13 05:54:09;;;;;;;;;;;;;;;;;;5075323;28;19912;-83
2024/01/13 05:56:35;;;;;;;;;;;;;;;;;;5077049;28;20344;-82
2024/01/13 05:59:01;;;;;;;;;;;;;;;;;;5085614;28;20010;-84
2024/01/13 06:01:27;;;;;;;;;;;;;;;;;;5078480;28;20351;-84
2024/01/13 06:03:52;;;;;;;;;;;;;;;;;;5085023;28;20362;-84
2024/01/13 06:06:18;;;;;;;;;;;;;;;;;;5082391;28;20469;-83
2024/01/13 06:08:44;;;;;;;;;;;;;;;;;;5081716;28;19974;-83
2024/01/13 06:11:10;;;;;;;;;;;;;;;;;;5075767;28;20013;-80
2024/01/13 06:13:36;;;;;;;;;;;;;;;;;;5069698;28;19912;-82
2024/01/13 06:16:02;;;;;;;;;;;;;;;;;;5078312;28;20285;-82
2024/01/13 06:18:27;;;;;;;;;;;;;;;;;;5069609;28;19989;-82
2024/01/13 06:20:53;;;;;;;;;;;;;;;;;;5084881;28;19916;-82
2024/01/13 06:23:19;;;;;;;;;;;;;;;;;;5077246;28;19926;-82
2024/01/13 06:25:48;;;;;;;;;;;;;;;;;;5081308;28;20133;-82
2024/01/13 06:28:14;;;;;;;;;;;;;;;;;;5076199;28;19913;-82
2024/01/13 06:30:40;;;;;;;;;;;;;;;;;;5076174;28;19962;-81
2024/01/13 06:33:06;;;;;;;;;;;;;;;;;;5076865;28;19968;-82
2024/01/13 06:35:32;;;;;;;;;;;;;;;;;;5077798;28;19945;-82
2024/01/13 06:37:58;;;;;;;;;;;;;;;;;;5078493;28;19920;-81
2024/01/13 06:40:23;;;;;;;;;;;;;;;;;;5077371;28;19916;-83
2024/01/13 06:42:49;;;;;;;;;;;;;;;;;;5077924;28;19983;-82
2024/01/13 06:45:15;;;;;;;;;;;;;;;;;;5077761;28;20389;-82
2024/01/13 06:47:41;;;;;;;;;;;;;;;;;;5077277;28;20278;-82
2024/01/13 06:50:07;;;;;;;;;;;;;;;;;;5077205;28;19916;-82
2024/01/13 06:52:33;;;;;;;;;;;;;;;;;;5077297;28;19920;-82
2024/01/13 06:55:00;;;;;;;;;;;;;;;;;;5078132;28;20003;-82
2024/01/13 06:57:25;;;;;;;;;;;;;;;;;;5078543;28;19920;-82
2024/01/13 06:59:51;;;;;;;;;;;;;;;;;;5077451;28;19916;-83
2024/01/13 07:02:17;;;;;;;;;;;;;;;;;;5077501;28;20004;-82
2024/01/13 07:04:43;;;;;;;;;;;;;;;;;;5078250;28;19914;-82
2024/01/13 07:07:09;;;;;;;;;;;;;;;;;;5077779;28;19920;-82
2024/01/13 07:09:35;;;;;;;;;;;;;;;;;;5076749;28;20359;-82
2024/01/13 07:12:01;;;;;;;;;;;;;;;;;;5076755;28;19923;-82
2024/01/13 07:14:27;;;;;;;;;;;;;;;;;;5079963;28;19966;-82
2024/01/13 07:16:52;;;;;;;;;;;;;;;;;;5080578;28;19923;-82
2024/01/13 07:19:19;;;;;;;;;;;;;;;;;;5081373;28;19946;-82
2024/01/13 07:21:45;;;;;;;;;;;;;;;;;;5081042;28;20536;-82
2024/01/13 07:24:11;;;;;;;;;;;;;;;;;;5080869;28;20071;-82
2024/01/13 07:26:37;;;;;;;;;;;;;;;;;;5081486;28;20024;-80
2024/01/13 07:29:03;;;;;;;;;;;;;;;;;;5080044;28;19920;-82
2024/01/13 07:31:29;;;;;;;;;;;;;;;;;;5081916;28;19919;-82
2024/01/13 07:33:55;;;;;;;;;;;;;;;;;;5080703;28;19934;-82
2024/01/13 07:36:21;;;;;;;;;;;;;;;;;;5080483;28;19956;-82
2024/01/13 07:38:47;;;;;;;;;;;;;;;;;;5081850;28;20021;-83
2024/01/13 07:41:13;;;;;;;;;;;;;;;;;;5080989;28;19923;-82
2024/01/13 07:43:38;;;;;;;;;;;;;;;;;;5079998;28;19912;-83
2024/01/13 07:46:05;;;;;;;;;;;;;;;;;;5080069;28;20398;-82
2024/01/13 07:48:31;;;;;;;;;;;;;;;;;;5080752;28;19922;-82
2024/01/13 07:50:56;;;;;;;;;;;;;;;;;;5079916;28;19924;-82
2024/01/13 07:53:22;;;;;;;;;;;;;;;;;;5080731;28;19944;-82
2024/01/13 07:55:48;;;;;;;;;;;;;;;;;;5080486;28;19919;-83
2024/01/13 07:58:14;;;;;;;;;;;;;;;;;;5080488;28;19962;-79
2024/01/13 08:00:40;;;;;;;;;;;;;;;;;;5079767;28;19912;-83
2024/01/13 08:03:06;;;;;;;;;;;;;;;;;;5080550;28;19928;-82
2024/01/13 08:05:31;;;;;;;;;;;;;;;;;;5079535;28;20362;-83
2024/01/13 08:07:57;;;;;;;;;;;;;;;;;;5079889;28;19967;-83
2024/01/13 08:10:23;;;;;;;;;;;;;;;;;;5080009;28;19916;-84
2024/01/13 08:12:49;;;;;;;;;;;;;;;;;;5080644;28;19966;-79
2024/01/13 08:15:15;;;;;;;;;;;;;;;;;;5080452;28;20023;-80
2024/01/13 08:17:41;;;;;;;;;;;;;;;;;;5078532;28;19919;-81
2024/01/13 08:20:07;;;;;;;;;;;;;;;;;;5080824;28;19912;-83
2024/01/13 08:22:32;;;;;;;;;;;;;;;;;;5076336;28;20237;-80
2024/01/13 08:24:58;;;;;;;;;;;;;;;;;;5085204;28;19920;-82
2024/01/13 08:27:24;;;;;;;;;;;;;;;;;;5085492;28;19916;-81
2024/01/13 08:29:50;;;;;;;;;;;;;;;;;;5090420;28;20259;-82
2024/01/13 08:32:16;;;;;;;;;;;;;;;;;;5080569;28;20302;-79
2024/01/13 08:34:42;;;;;;;;;;;;;;;;;;5081474;28;19912;-80
2024/01/13 08:37:07;;;;;;;;;;;;;;;;;;5075836;28;19997;-80
2024/01/13 08:39:33;;;;;;;;;;;;;;;;;;5071723;28;19909;-80
2024/01/13 08:41:59;;;;;;;;;;;;;;;;;;5073235;28;19919;-80
2024/01/13 08:44:25;;;;;;;;;;;;;;;;;;5087693;28;19912;-80
2024/01/13 08:46:51;;;;;;;;;;;;;;;;;;5077597;28;19927;-80
2024/01/13 08:49:17;;;;;;;;;;;;;;;;;;5082610;28;19920;-81
2024/01/13 08:51:43;;;;;;;;;;;;;;;;;;5080259;28;20446;-81
2024/01/13 08:54:09;;;;;;;;;;;;;;;;;;5077525;28;20008;-80
2024/01/13 08:56:34;;;;;;;;;;;;;;;;;;5078807;28;19920;-81
2024/01/13 08:59:00;;;;;;;;;;;;;;;;;;5080028;28;20375;-80
2024/01/13 09:01:26;;;;;;;;;;;;;;;;;;5079450;28;19913;-81
2024/01/13 09:03:52;;;;;;;;;;;;;;;;;;5079599;28;20054;-80
2024/01/13 09:06:18;;;;;;;;;;;;;;;;;;5079057;28;20539;-81
2024/01/13 09:08:44;;;;;;;;;;;;;;;;;;5079331;28;20580;-82
2024/01/13 09:11:09;;;;;;;;;;;;;;;;;;5079130;28;20308;-81
2024/01/13 09:13:36;;;;;;;;;;;;;;;;;;5078844;28;19992;-81
2024/01/13 09:16:02;;;;;;;;;;;;;;;;;;5079235;28;19952;-83
2024/01/13 09:18:28;;;;;;;;;;;;;;;;;;5078886;28;19959;-79
2024/01/13 09:20:54;;;;;;;;;;;;;;;;;;5079788;28;19966;-80
2024/01/13 09:23:19;;;;;;;;;;;;;;;;;;5080178;28;20434;-83
2024/01/13 09:25:45;;;;;;;;;;;;;;;;;;5079252;28;19916;-83
2024/01/13 09:28:11;;;;;;;;;;;;;;;;;;5078580;28;19920;-83
2024/01/13 09:30:38;;;;;;;;;;;;;;;;;;5078908;28;20294;-82
2024/01/13 09:33:05;;;;;;;;;;;;;;;;;;5077855;28;21224;-82
2024/01/13 09:35:31;;;;;;;;;;;;;;;;;;5078740;28;19920;-81
2024/01/13 09:37:57;;;;;;;;;;;;;;;;;;5077844;28;20397;-80
2024/01/13 09:40:23;;;;;;;;;;;;;;;;;;5078942;28;19915;-82
2024/01/13 09:42:50;;;;;;;;;;;;;;;;;;5078083;28;19916;-82
2024/01/13 09:45:16;;;;;;;;;;;;;;;;;;5077148;28;20334;-82
2024/01/13 09:47:42;;;;;;;;;;;;;;;;;;5082853;28;19912;-83
2024/01/13 09:50:08;;;;;;;;;;;;;;;;;;5084719;28;19965;-83
2024/01/13 09:52:34;;;;;;;;;;;;;;;;;;5067626;28;19916;-81
2024/01/13 09:55:00;;;;;;;;;;;;;;;;;;5083056;28;19916;-79
2024/01/13 09:57:26;;;;;;;;;;;;;;;;;;5077427;28;19999;-82
2024/01/13 09:59:52;;;;;;;;;;;;;;;;;;5072491;28;19912;-81
2024/01/13 10:02:18;;;;;;;;;;;;;;;;;;5085301;28;20384;-82
2024/01/13 10:04:43;;;;;;;;;;;;;;;;;;5087805;28;20359;-82
2024/01/13 10:07:09;;;;;;;;;;;;;;;;;;5082281;28;20010;-82
2024/01/13 10:09:35;;;;;;;;;;;;;;;;;;5088309;28;19916;-82
2024/01/13 10:12:01;;;;;;;;;;;;;;;;;;5081720;28;19916;-82
2024/01/13 10:14:27;;;;;;;;;;;;;;;;;;5073270;28;19951;-82
2024/01/13 10:16:53;;;;;;;;;;;;;;;;;;5077271;28;19923;-82
2024/01/13 10:19:19;;;;;;;;;;;;;;;;;;5088006;28;20355;-81
2024/01/13 10:21:45;;;;;;;;;;;;;;;;;;5074915;28;19919;-81
2024/01/13 10:24:11;;;;;;;;;;;;;;;;;;5076713;28;19928;-81
2024/01/13 10:26:36;;;;;;;;;;;;;;;;;;5066531;28;19912;-79
2024/01/13 10:29:02;;;;;;;;;;;;;;;;;;5075822;28;19966;-83
2024/01/13 10:31:30;;;;;;;;;;;;;;;;;;5075749;28;19927;-82
2024/01/13 10:33:56;;;;;;;;;;;;;;;;;;5077619;28;19912;-87
2024/01/13 10:36:22;;;;;;;;;;;;;;;;;;5077348;28;20375;-82
2024/01/13 10:38:48;;;;;;;;;;;;;;;;;;5078539;28;19912;-85
2024/01/13 10:41:14;;;;;;;;;;;;;;;;;;5077428;28;20387;-80
2024/01/13 10:43:40;;;;;;;;;;;;;;;;;;5077168;28;20275;-83
2024/01/13 10:46:06;;;;;;;;;;;;;;;;;;5075754;28;20395;-83
2024/01/13 10:48:32;;;;;;;;;;;;;;;;;;5079152;28;19922;-83
2024/01/13 10:50:58;;;;;;;;;;;;;;;;;;5080690;28;20576;-83
2024/01/13 10:53:23;;;;;;;;;;;;;;;;;;5080808;28;19916;-83
2024/01/13 10:55:49;;;;;;;;;;;;;;;;;;5081091;28;19913;-83
2024/01/13 10:58:15;;;;;;;;;;;;;;;;;;5081192;28;20375;-84
2024/01/13 11:00:41;;;;;;;;;;;;;;;;;;5081764;28;19966;-83
2024/01/13 11:03:07;;;;;;;;;;;;;;;;;;5081155;28;19920;-83
2024/01/13 11:05:33;;;;;;;;;;;;;;;;;;5081112;28;20404;-83
2024/01/13 11:08:02;;;;;;;;;;;;;;;;;;5076748;28;19921;-83
2024/01/13 11:10:28;;;;;;;;;;;;;;;;;;5080232;28;19924;-82
2024/01/13 11:12:54;;;;;;;;;;;;;;;;;;5081338;28;19923;-83
2024/01/13 11:15:20;;;;;;;;;;;;;;;;;;5080935;28;20002;-83
2024/01/13 11:17:46;;;;;;;;;;;;;;;;;;5076633;28;20070;-78
2024/01/13 11:20:12;;;;;;;;;;;;;;;;;;5088009;28;19921;-79
2024/01/13 11:22:38;;;;;;;;;;;;;;;;;;5091653;28;19916;-78
2024/01/13 11:25:04;;;;;;;;;;;;;;;;;;5084746;28;20504;-78
2024/01/13 11:27:30;;;;;;;;;;;;;;;;;;5076644;28;19916;-83
2024/01/13 11:29:56;;;;;;;;;;;;;;;;;;5089774;28;19987;-84
2024/01/13 11:32:22;;;;;;;;;;;;;;;;;;5079893;28;20397;-82
2024/01/13 11:34:48;;;;;;;;;;;;;;;;;;5079229;28;20355;-83
2024/01/13 11:37:14;;;;;;;;;;;;;;;;;;5081888;28;19916;-83
2024/01/13 11:39:40;;;;;;;;;;;;;;;;;;5088446;28;19973;-78
2024/01/13 11:42:06;;;;;;;;;;;;;;;;;;5079263;28;19912;-78
2024/01/13 11:44:32;;;;;;;;;;;;;;;;;;5081800;28;19919;-78
2024/01/13 11:46:58;;;;;;;;;;;;;;;;;;5081622;28;19920;-78
2024/01/13 11:49:24;;;;;;;;;;;;;;;;;;5082676;28;19916;-80
2024/01/13 11:51:50;;;;;;;;;;;;;;;;;;5086476;28;20317;-78
2024/01/13 11:54:16;;;;;;;;;;;;;;;;;;5086817;28;20303;-78
2024/01/13 11:56:42;;;;;;;;;;;;;;;;;;5084589;28;19920;-78
2024/01/13 11:59:08;;;;;;;;;;;;;;;;;;5088527;28;20364;-79
2024/01/13 12:01:35;;;;;;;;;;;;;;;;;;5076912;28;20393;-80
2024/01/13 12:04:01;;;;;;;;;;;;;;;;;;5086060;28;19912;-77
2024/01/13 12:06:26;;;;;;;;;;;;;;;;;;5081437;28;19920;-78
2024/01/13 12:08:53;;;;;;;;;;;;;;;;;;5087475;28;19916;-78
2024/01/13 12:11:19;;;;;;;;;;;;;;;;;;5088976;28;19916;-78
2024/01/13 12:13:45;;;;;;;;;;;;;;;;;;5080602;28;19990;-78
2024/01/13 12:16:11;;;;;;;;;;;;;;;;;;5088052;28;19952;-78
2024/01/13 12:18:37;;;;;;;;;;;;;;;;;;5085329;28;19938;-77
2024/01/13 12:21:02;;;;;;;;;;;;;;;;;;5090247;28;20401;-78
2024/01/13 12:23:28;;;;;;;;;;;;;;;;;;5090235;28;20330;-78
2024/01/13 12:25:54;;;;;;;;;;;;;;;;;;5089961;28;19912;-79
2024/01/13 12:28:20;;;;;;;;;;;;;;;;;;5083549;28;20089;-78
2024/01/13 12:30:48;;;;;;;;;;;;;;;;;;5090237;28;19920;-78
2024/01/13 12:33:14;;;;;;;;;;;;;;;;;;5086883;28;19916;-78
2024/01/13 12:35:39;;;;;;;;;;;;;;;;;;5085137;28;19919;-78
2024/01/13 12:38:06;;;;;;;;;;;;;;;;;;5075879;28;19913;-78
2024/01/13 12:40:32;;;;;;;;;;;;;;;;;;5089788;28;19964;-79
2024/01/13 12:42:58;;;;;;;;;;;;;;;;;;5090219;28;19919;-78
2024/01/13 12:45:26;;;;;;;;;;;;;;;;;;5087968;28;20444;-78
2024/01/13 12:47:52;;;;;;;;;;;;;;;;;;5086152;28;20048;-78
2024/01/13 12:50:18;;;;;;;;;;;;;;;;;;5076073;28;19985;-78
2024/01/13 12:52:44;;;;;;;;;;;;;;;;;;5078068;28;19931;-78
2024/01/13 12:55:10;;;;;;;;;;;;;;;;;;5090026;28;20263;-77
2024/01/13 12:57:36;;;;;;;;;;;;;;;;;;5087693;28;20350;-78
2024/01/13 13:00:02;;;;;;;;;;;;;;;;;;5088300;28;19912;-78
2024/01/13 13:02:28;;;;;;;;;;;;;;;;;;5089473;28;19915;-78
2024/01/13 13:04:54;;;;;;;;;;;;;;;;;;5090028;28;19934;-78
2024/01/13 13:07:24;;;;;;;;;;;;;;;;;;5080717;28;19908;-78
2024/01/13 13:09:50;;;;;;;;;;;;;;;;;;5073346;28;20390;-78
2024/01/13 13:12:16;;;;;;;;;;;;;;;;;;5089528;28;19912;-78
2024/01/13 13:14:42;;;;;;;;;;;;;;;;;;5089693;28;19919;-78
2024/01/13 13:17:09;;;;;;;;;;;;;;;;;;5083734;28;20366;-79
2024/01/13 13:19:35;;;;;;;;;;;;;;;;;;5088344;28;19920;-78
2024/01/13 13:22:01;;;;;;;;;;;;;;;;;;5083490;28;19923;-77
2024/01/13 13:24:26;;;;;;;;;;;;;;;;;;5078548;28;20546;-79
2024/01/13 13:26:52;;;;;;;;;;;;;;;;;;5080342;28;20298;-79
2024/01/13 13:29:18;;;;;;;;;;;;;;;;;;5079687;28;19913;-78
2024/01/13 13:31:44;;;;;;;;;;;;;;;;;;5081895;28;19923;-78
2024/01/13 13:34:11;;;;;;;;;;;;;;;;;;5073072;28;19936;-78
2024/01/13 13:36:36;;;;;;;;;;;;;;;;;;5076180;28;20359;-82
2024/01/13 13:39:05;;;;;;;;;;;;;;;;;;5079093;28;19919;-79
2024/01/13 13:41:31;;;;;;;;;;;;;;;;;;5084691;28;19935;-79
2024/01/13 13:43:56;;;;;;;;;;;;;;;;;;5081765;28;20374;-79
2024/01/13 13:46:22;;;;;;;;;;;;;;;;;;5084060;28;19912;-78
2024/01/13 13:48:48;;;;;;;;;;;;;;;;;;5079784;28;19951;-80
2024/01/13 13:51:14;;;;;;;;;;;;;;;;;;5080342;28;20676;-79
2024/01/13 13:53:40;;;;;;;;;;;;;;;;;;5087203;28;20288;-76
2024/01/13 13:56:06;;;;;;;;;;;;;;;;;;5079558;28;19952;-79
2024/01/13 13:58:32;;;;;;;;;;;;;;;;;;5085026;28;19920;-80
2024/01/13 14:00:58;;;;;;;;;;;;;;;;;;5083307;28;20006;-74
2024/01/13 14:03:24;;;;;;;;;;;;;;;;;;5084388;28;20042;-79
2024/01/13 14:05:50;;;;;;;;;;;;;;;;;;5079483;28;19973;-81
2024/01/13 14:08:16;;;;;;;;;;;;;;;;;;5080119;28;19920;-80
2024/01/13 14:10:42;;;;;;;;;;;;;;;;;;5084069;28;19920;-80
2024/01/13 14:13:08;;;;;;;;;;;;;;;;;;5075859;28;19920;-78
2024/01/13 14:15:34;;;;;;;;;;;;;;;;;;5086531;28;19934;-78
2024/01/13 14:18:00;;;;;;;;;;;;;;;;;;5073601;28;20379;-78
2024/01/13 14:20:26;;;;;;;;;;;;;;;;;;5088475;28;19940;-79
2024/01/13 14:22:52;;;;;;;;;;;;;;;;;;5082394;28;19916;-79
2024/01/13 14:25:18;;;;;;;;;;;;;;;;;;5082768;28;20286;-78
2024/01/13 14:27:44;;;;;;;;;;;;;;;;;;5088319;28;19916;-77
2024/01/13 14:30:10;;;;;;;;;;;;;;;;;;5081160;28;19916;-77
2024/01/13 14:32:36;;;;;;;;;;;;;;;;;;5083208;28;19919;-77
2024/01/13 14:35:02;;;;;;;;;;;;;;;;;;5085622;28;19912;-78
2024/01/13 14:37:28;;;;;;;;;;;;;;;;;;5084379;28;19912;-77
2024/01/13 14:39:54;;;;;;;;;;;;;;;;;;5082147;28;19913;-76
2024/01/13 14:42:19;;;;;;;;;;;;;;;;;;5080180;28;19990;-76
2024/01/13 14:44:46;;;;;;;;;;;;;;;;;;5083858;28;19969;-86
2024/01/13 14:47:12;;;;;;;;;;;;;;;;;;5077007;28;19922;-79
2024/01/13 14:49:38;;;;;;;;;;;;;;;;;;5080112;28;19916;-78
2024/01/13 14:52:04;;;;;;;;;;;;;;;;;;5070873;28;19913;-79
2024/01/13 14:54:30;;;;;;;;;;;;;;;;;;5081044;28;19934;-79
2024/01/13 14:56:56;;;;;;;;;;;;;;;;;;5072561;28;19908;-80
2024/01/13 14:59:21;;;;;;;;;;;;;;;;;;5075210;28;19916;-80
2024/01/13 15:01:48;;;;;;;;;;;;;;;;;;5084118;28;19999;-80
2024/01/13 15:04:13;;;;;;;;;;;;;;;;;;5081911;28;19912;-79
2024/01/13 15:06:39;;;;;;;;;;;;;;;;;;5083904;28;19966;-80
2024/01/13 15:09:05;;;;;;;;;;;;;;;;;;5076777;28;20007;-80
2024/01/13 15:11:31;;;;;;;;;;;;;;;;;;5081747;28;19920;-80
2024/01/13 15:13:57;;;;;;;;;;;;;;;;;;5086087;28;20002;-80
2024/01/13 15:16:23;;;;;;;;;;;;;;;;;;5071278;28;19923;-80
2024/01/13 15:18:48;;;;;;;;;;;;;;;;;;5086870;28;19911;-80
2024/01/13 15:21:14;;;;;;;;;;;;;;;;;;5087583;28;19968;-80
2024/01/13 15:23:44;;;;;;;;;;;;;;;;;;5086842;28;19932;-79
2024/01/13 15:26:10;;;;;;;;;;;;;;;;;;5085933;28;20007;-80
2024/01/13 15:28:36;;;;;;;;;;;;;;;;;;5083622;28;20314;-80
2024/01/13 15:31:02;;;;;;;;;;;;;;;;;;5086301;28;20434;-80
2024/01/13 15:33:28;;;;;;;;;;;;;;;;;;5081353;28;20386;-80
2024/01/13 15:35:54;;;;;;;;;;;;;;;;;;5087593;28;19912;-80
2024/01/13 15:38:21;;;;;;;;;;;;;;;;;;5086789;28;19919;-80
2024/01/13 15:40:47;;;;;;;;;;;;;;;;;;5087782;28;20282;-80
2024/01/13 15:43:12;;;;;;;;;;;;;;;;;;5085333;28;19959;-84
2024/01/13 15:45:41;;;;;;;;;;;;;;;;;;5085594;28;19944;-82
2024/01/13 15:48:07;;;;;;;;;;;;;;;;;;5083577;28;20571;-80
2024/01/13 15:50:33;;;;;;;;;;;;;;;;;;5080693;28;19920;-79
2024/01/13 15:52:59;;;;;;;;;;;;;;;;;;5085537;28;19923;-78
2024/01/13 15:55:25;;;;;;;;;;;;;;;;;;5087664;28;19982;-80
2024/01/13 15:57:51;;;;;;;;;;;;;;;;;;5085788;28;19950;-81
2024/01/13 16:00:17;;;;;;;;;;;;;;;;;;5088675;28;20657;-81
2024/01/13 16:02:44;;;;;;;;;;;;;;;;;;5080278;28;20328;-78
2024/01/13 16:05:10;;;;;;;;;;;;;;;;;;5080707;28;20274;-83
2024/01/13 16:07:36;;;;;;;;;;;;;;;;;;5083345;28;19916;-82
2024/01/13 16:10:03;;;;;;;;;;;;;;;;;;5076675;28;20332;-82
2024/01/13 16:12:29;;;;;;;;;;;;;;;;;;5085187;28;20359;-82
2024/01/13 16:14:56;;;;;;;;;;;;;;;;;;5087282;28;19918;-82
2024/01/13 16:17:22;;;;;;;;;;;;;;;;;;5084169;28;20594;-86
2024/01/13 16:19:48;;;;;;;;;;;;;;;;;;5091346;28;19919;-85
2024/01/13 16:22:13;;;;;;;;;;;;;;;;;;5079344;28;19969;-84
2024/01/13 16:24:39;;;;;;;;;;;;;;;;;;5078634;28;19921;-87
2024/01/13 16:27:05;;;;;;;;;;;;;;;;;;5081259;28;20363;-86
2024/01/13 16:29:31;;;;;;;;;;;;;;;;;;5074169;28;19916;-90
2024/01/13 16:31:57;;;;;;;;;;;;;;;;;;5083179;28;19919;-79
2024/01/13 16:34:23;;;;;;;;;;;;;;;;;;5086492;28;19988;-83
2024/01/13 16:36:49;;;;;;;;;;;;;;;;;;5079009;28;19916;-82